メインページ
METAR-TAF:

METAR-TAF

空港 :

フォール=ド=フランス, マルティニーク

マルティニーク・エメ・セゼール国際空港

緯度: 14-36N, 経度: 061-00W, 海抜: 5m

現時点の気象観測

当レポートは32分前の15:00(UTC)に作成
東/南東の風 15kt
気温 29°C
湿度 79%
気圧 1017 hPa
視程10km以上

METAR: TFFF 251500Z AUTO 12015KT 9999 SCT023/// BKN029/// BKN036/// ///TCU 29/25 Q1017 TEMPO 08015G30KT 1000 TSRA SCT012CB BKN015

時間: 11:32 (15:32 UTC)

予報

当レポートは4時間32分前の11:00(UTC)に作成
予報は25日の 12時(UTC)から 26日の 12時(UTC)まで有効
の風 10kt
視程10km以上
高度2000ftの千切れ雲あり
25日の 12時(UTC)から 25日の 24時(UTC)まで一時的に
視程: 3000m
高度1500ftの雲は散在している, 塔状積雲.
にわか雨
確率 40% :
25日の 12時(UTC)から 25日の 18時(UTC)まで一時的に
高度1500ftの雲はほとんどない, 積乱雲.
確率 30% :
25日の 12時(UTC)から 25日の 18時(UTC)まで一時的に
の風 15kt、最大30ktの突風を伴う
視程: 1000m
高度1200ftの雲は散在している, 積乱雲.
高度1500ftの千切れ雲あり
激しい雷雨, 雨
26日の 00時(UTC)から 26日の 03時(UTC)まで徐々に
高度2500ftの雲は散在している

TAF: TFFF 251100Z 2512/2612 08010KT 9999 BKN020 TEMPO 2512/2524 3000 SHRA SCT015TCU PROB40 TEMPO 2512/2518 FEW015CB PROB30 TEMPO 2512/2518 08015G30KT 1000 TSRA SCT012CB BKN015 BECMG 2600/2603 SCT025

4,000以上の空港の気象観測と天気予報(METAR報とTAF報)

利用可能な観測所は地図上に黄色い丸と赤い丸で示す。

丸の上にカーソルを重ねると観測所名を参照できる。

次にクリックすると気象観測と天気予報を参照できる。

マップの切り替え:黒色「×」印の緑ボタンをクリックして拡大、「-」印の緑ボタンをクリックして縮小、緑色の三角印をクリックして隣りの地図に切り替え


METAR-TAF: